Time;durP1;ratioP1;P1;durP2;ratioP2;P2;SDS_P1;SDS_P2;PMS_P1;PMS_P2;Temp;Humidity;BMP_temperature;BMP_pressure;BME280_temperature;BME280_humidity;BME280_pressure;Samples;Min_cycle;Max_cycle;Signal;HPM_P1;HPM_P2
2022/01/05 00:01:25;;;;;;;1.08;0.20;;;14.00;52.10;;;;;;5110907;28;20489;-66
2022/01/05 00:03:54;;;;;;;2.70;0.30;;;14.00;52.10;;;;;;5111049;28;20075;-66
2022/01/05 00:06:19;;;;;;;1.95;0.30;;;14.00;52.10;;;;;;5110602;28;20572;-66
2022/01/05 00:08:45;;;;;;;2.78;0.75;;;14.00;52.10;;;;;;5110822;28;20075;-66
2022/01/05 00:11:12;;;;;;;3.38;0.90;;;13.90;52.00;;;;;;5110727;28;20047;-66
2022/01/05 00:13:38;;;;;;;1.85;0.43;;;13.90;52.10;;;;;;5111768;28;20039;-66
2022/01/05 00:16:06;;;;;;;1.23;0.40;;;13.90;52.10;;;;;;5111911;28;20444;-66
2022/01/05 00:18:32;;;;;;;2.60;0.80;;;13.90;52.20;;;;;;5111854;28;20079;-66
2022/01/05 00:20:59;;;;;;;3.67;0.68;;;13.90;52.10;;;;;;5114090;28;20071;-66
2022/01/05 00:23:28;;;;;;;3.30;0.40;;;13.90;52.10;;;;;;5114707;28;20071;-66
2022/01/05 00:25:54;;;;;;;1.83;0.40;;;13.80;52.10;;;;;;5114703;28;20425;-66
2022/01/05 00:28:20;;;;;;;1.83;0.35;;;13.80;52.10;;;;;;5115807;28;20518;-66
2022/01/05 00:30:49;;;;;;;1.40;0.30;;;13.80;52.60;;;;;;5115898;28;20075;-66
2022/01/05 00:33:15;;;;;;;3.15;0.40;;;13.80;52.30;;;;;;5115268;28;20130;-66
2022/01/05 00:35:41;;;;;;;2.30;0.47;;;13.80;52.30;;;;;;5115721;28;20101;-66
2022/01/05 00:38:07;;;;;;;3.00;0.38;;;13.80;52.30;;;;;;5115443;28;20039;-66
2022/01/05 00:40:33;;;;;;;1.90;0.28;;;13.80;52.30;;;;;;5114266;28;20417;-66
2022/01/05 00:42:59;;;;;;;2.50;0.30;;;13.80;52.30;;;;;;5114264;28;20082;-66
2022/01/05 00:45:25;;;;;;;2.50;0.80;;;13.90;52.30;;;;;;5115446;28;20039;-66
2022/01/05 00:47:50;;;;;;;1.73;0.50;;;14.00;52.20;;;;;;5113992;28;20044;-66
2022/01/05 00:50:16;;;;;;;4.15;0.80;;;14.20;51.90;;;;;;5113969;28;20028;-66
2022/01/05 00:52:42;;;;;;;1.45;0.30;;;14.50;51.40;;;;;;5115077;28;20065;-66
2022/01/05 00:55:07;;;;;;;1.17;0.20;;;14.80;50.90;;;;;;5113862;28;20043;-66
2022/01/05 00:57:33;;;;;;;2.30;0.30;;;15.20;51.00;;;;;;5113799;28;20039;-66
2022/01/05 00:59:59;;;;;;;1.45;0.50;;;15.60;49.50;;;;;;5115113;28;20169;-66
2022/01/05 01:02:24;;;;;;;2.13;0.20;;;16.10;48.70;;;;;;5114182;28;20063;-66
2022/01/05 01:04:53;;;;;;;1.70;0.15;;;16.60;47.90;;;;;;5113596;28;20052;-66
2022/01/05 01:07:19;;;;;;;1.50;0.20;;;17.00;47.10;;;;;;5113665;28;20100;-66
2022/01/05 01:09:45;;;;;;;1.95;0.25;;;17.50;46.30;;;;;;5113493;28;20046;-66
2022/01/05 01:12:10;;;;;;;1.83;0.40;;;17.80;45.50;;;;;;5113801;28;20047;-66
2022/01/05 01:14:36;;;;;;;1.13;0.20;;;18.20;45.10;;;;;;5113394;28;20580;-66
2022/01/05 01:17:02;;;;;;;1.88;0.20;;;18.40;44.70;;;;;;5114671;28;20399;-66
2022/01/05 01:19:28;;;;;;;1.65;0.20;;;18.50;44.40;;;;;;5096403;28;20054;-66
2022/01/05 01:21:53;;;;;;;1.33;0.15;;;18.60;44.10;;;;;;5114621;28;20050;-66
2022/01/05 01:24:19;;;;;;;0.70;0.40;;;18.70;44.00;;;;;;5114747;28;20039;-66
2022/01/05 01:26:48;;;;;;;2.13;0.25;;;18.70;43.80;;;;;;5113266;28;20044;-66
2022/01/05 01:29:13;;;;;;;1.13;0.20;;;18.70;43.70;;;;;;5113122;28;20044;-66
2022/01/05 01:31:39;;;;;;;2.25;0.20;;;18.70;43.70;;;;;;5113375;28;20045;-66
2022/01/05 01:34:05;;;;;;;0.93;0.30;;;18.70;43.50;;;;;;5113904;28;20047;-66
2022/01/05 01:36:30;;;;;;;1.38;0.20;;;18.60;43.50;;;;;;5113191;28;20044;-66
2022/01/05 01:38:57;;;;;;;2.08;0.20;;;18.60;43.50;;;;;;5114277;28;20126;-66
2022/01/05 01:41:23;;;;;;;1.67;0.30;;;18.50;43.50;;;;;;5113195;28;20046;-66
2022/01/05 01:43:48;;;;;;;1.45;0.20;;;18.50;43.60;;;;;;5113115;28;20035;-66
2022/01/05 01:46:14;;;;;;;2.63;0.40;;;18.40;43.70;;;;;;5113109;28;20391;-66
2022/01/05 01:48:40;;;;;;;1.75;0.20;;;18.30;43.70;;;;;;5113126;28;20040;-66
2022/01/05 01:51:05;;;;;;;2.53;0.25;;;18.20;43.80;;;;;;5113213;28;20051;-66
2022/01/05 01:53:34;;;;;;;0.95;0.20;;;18.10;43.80;;;;;;5112920;28;20043;-66
2022/01/05 01:56:02;;;;;;;1.05;0.20;;;18.20;44.00;;;;;;5112941;28;20043;-66
2022/01/05 01:58:32;;;;;;;1.05;0.20;;;17.90;44.00;;;;;;5112921;28;20364;-66
2022/01/05 02:00:58;;;;;;;2.47;0.30;;;17.90;44.10;;;;;;5112631;28;20055;-66
2022/01/05 02:03:24;;;;;;;1.67;0.30;;;17.70;44.30;;;;;;5112510;28;20048;-66
2022/01/05 02:05:49;;;;;;;1.73;0.28;;;17.70;44.50;;;;;;5112462;28;20050;-66
2022/01/05 02:08:15;;;;;;;1.48;0.45;;;17.50;44.50;;;;;;5112472;28;20122;-66
2022/01/05 02:10:43;;;;;;;1.63;0.40;;;17.40;44.70;;;;;;5113641;28;20093;-66
2022/01/05 02:13:09;;;;;;;2.22;0.35;;;17.30;44.90;;;;;;5112592;28;20047;-66
2022/01/05 02:15:34;;;;;;;1.55;0.20;;;17.20;45.00;;;;;;5095126;28;20479;-66
2022/01/05 02:20:46;;;;;;;2.60;0.25;;;17.00;45.40;;;;;;5145965;27;1362430;-66
2022/01/05 02:23:11;;;;;;;1.20;0.20;;;16.90;45.60;;;;;;5153340;27;20129;-66
2022/01/05 02:25:37;;;;;;;2.13;0.22;;;16.80;45.70;;;;;;5153125;27;20445;-66
2022/01/05 02:28:03;;;;;;;2.42;0.20;;;16.70;45.80;;;;;;5153238;27;20046;-66
2022/01/05 02:30:30;;;;;;;1.95;0.30;;;16.60;46.00;;;;;;5153048;27;20127;-66
2022/01/05 02:33:00;;;;;;;1.13;0.20;;;16.50;46.10;;;;;;5152812;27;20053;-66
2022/01/05 02:35:25;;;;;;;2.05;0.30;;;16.40;46.20;;;;;;5153158;27;20046;-66
2022/01/05 02:37:53;;;;;;;1.52;0.20;;;16.40;46.40;;;;;;5171408;27;20366;-66
2022/01/05 02:40:21;;;;;;;2.35;0.40;;;16.30;46.50;;;;;;5171555;27;20038;-66
2022/01/05 02:42:47;;;;;;;1.30;0.30;;;16.20;46.50;;;;;;5152705;27;20074;-66
2022/01/05 02:45:14;;;;;;;2.00;0.50;;;16.10;46.60;;;;;;5152763;27;20100;-66
2022/01/05 02:47:41;;;;;;;2.47;0.50;;;16.10;46.70;;;;;;5152795;27;20045;-66
2022/01/05 02:50:09;;;;;;;1.98;0.28;;;16.00;46.80;;;;;;5152786;27;20046;-66
2022/01/05 02:52:35;;;;;;;0.95;0.30;;;15.90;46.90;;;;;;5171172;27;20066;-66
2022/01/05 02:55:03;;;;;;;1.73;0.30;;;15.80;47.00;;;;;;5152499;27;20035;-66
2022/01/05 02:57:32;;;;;;;2.33;0.40;;;15.80;47.10;;;;;;5171059;27;20070;-66
2022/01/05 02:59:58;;;;;;;1.23;0.20;;;15.60;47.30;;;;;;5170943;27;20054;-66
2022/01/05 03:02:24;;;;;;;1.67;0.30;;;15.60;47.40;;;;;;5152262;27;20553;-66
2022/01/05 03:04:49;;;;;;;2.08;0.40;;;15.50;47.50;;;;;;5152532;27;20117;-67
2022/01/05 03:07:18;;;;;;;1.75;0.50;;;15.40;47.70;;;;;;5152167;27;20038;-66
2022/01/05 03:09:44;;;;;;;2.00;0.30;;;15.30;47.80;;;;;;5152209;27;20114;-66
2022/01/05 03:12:10;;;;;;;2.95;0.40;;;15.20;47.90;;;;;;5152147;27;20070;-66
2022/01/05 03:14:36;;;;;;;2.35;0.25;;;15.10;48.10;;;;;;5152025;27;20054;-66
2022/01/05 03:17:02;;;;;;;1.45;0.30;;;15.10;48.20;;;;;;5170703;27;20156;-66
2022/01/05 03:19:28;;;;;;;2.60;0.40;;;15.00;48.40;;;;;;5170230;27;20187;-66
2022/01/05 03:21:54;;;;;;;2.47;0.55;;;14.90;48.50;;;;;;5170609;27;20038;-66
2022/01/05 03:24:20;;;;;;;2.35;0.57;;;14.90;48.70;;;;;;5152072;27;20034;-66
2022/01/05 03:26:46;;;;;;;3.70;0.30;;;14.80;48.70;;;;;;5151839;27;20126;-66
2022/01/05 03:29:14;;;;;;;2.13;0.40;;;14.70;48.80;;;;;;5170469;27;20125;-66
2022/01/05 03:31:40;;;;;;;2.35;0.20;;;14.70;48.90;;;;;;5158803;27;20035;-66
2022/01/05 03:34:06;;;;;;;3.03;0.40;;;14.70;49.00;;;;;;5137806;27;20409;-66
2022/01/05 03:36:32;;;;;;;2.03;0.50;;;14.60;49.10;;;;;;5156664;27;20091;-66
2022/01/05 03:38:58;;;;;;;2.05;0.38;;;14.60;49.20;;;;;;5137626;27;20538;-66
2022/01/05 03:41:23;;;;;;;1.85;0.30;;;14.50;49.20;;;;;;5137739;27;20042;-67
2022/01/05 03:43:49;;;;;;;1.50;0.30;;;14.50;49.20;;;;;;5137784;27;20042;-66
2022/01/05 03:46:15;;;;;;;1.92;0.25;;;14.50;49.30;;;;;;5137946;27;20038;-66
2022/01/05 03:48:41;;;;;;;3.13;0.68;;;14.40;49.30;;;;;;5137611;27;20539;-66
2022/01/05 03:51:06;;;;;;;3.13;0.60;;;14.40;49.30;;;;;;5137539;27;20055;-66
2022/01/05 03:53:32;;;;;;;3.45;0.55;;;14.40;49.40;;;;;;5156127;27;20067;-66
2022/01/05 03:56:06;;;;;;;2.28;0.30;;;14.40;49.50;;;;;;5156180;27;20042;-66
2022/01/05 03:58:32;;;;;;;2.40;0.40;;;14.30;49.60;;;;;;5155947;27;20494;-66
2022/01/05 04:00:58;;;;;;;1.60;0.30;;;14.30;49.60;;;;;;5155967;27;20070;-66
2022/01/05 04:03:24;;;;;;;2.78;0.32;;;14.30;49.60;;;;;;5155958;27;20117;-67
2022/01/05 04:05:49;;;;;;;1.83;0.30;;;14.30;49.60;;;;;;5155910;27;20211;-66
2022/01/05 04:08:17;;;;;;;3.83;1.05;;;14.20;49.60;;;;;;5155951;27;20036;-66
2022/01/05 04:10:43;;;;;;;3.97;0.40;;;14.20;49.70;;;;;;5137265;27;20039;-66
2022/01/05 04:13:08;;;;;;;2.78;0.30;;;14.20;49.70;;;;;;5137239;27;20042;-66
2022/01/05 04:15:37;;;;;;;2.60;0.40;;;14.20;49.70;;;;;;5137257;27;20038;-66
2022/01/05 04:18:05;;;;;;;2.47;0.50;;;14.20;49.80;;;;;;5137170;27;20046;-66
2022/01/05 04:20:31;;;;;;;1.77;0.40;;;14.20;49.90;;;;;;5136697;27;20039;-67
2022/01/05 04:22:57;;;;;;;3.50;0.30;;;14.10;49.80;;;;;;5137229;27;20045;-66
2022/01/05 04:25:23;;;;;;;3.53;0.70;;;14.10;49.90;;;;;;5137234;27;20389;-66
2022/01/05 04:27:52;;;;;;;2.17;0.40;;;14.10;49.90;;;;;;5155931;27;20038;-66
2022/01/05 04:30:17;;;;;;;3.72;0.57;;;14.10;49.90;;;;;;5137185;27;20058;-66
2022/01/05 04:32:43;;;;;;;2.63;0.47;;;14.10;50.00;;;;;;5136840;27;20528;-67
2022/01/05 04:35:13;;;;;;;2.60;0.43;;;14.00;50.00;;;;;;5155209;27;20030;-66
2022/01/05 04:37:40;;;;;;;2.83;0.60;;;14.00;50.00;;;;;;5136951;27;20042;-66
2022/01/05 04:40:06;;;;;;;2.50;0.60;;;14.00;50.10;;;;;;5155200;27;20127;-66
2022/01/05 04:42:34;;;;;;;4.55;0.70;;;14.00;50.10;;;;;;5154506;27;20038;-66
2022/01/05 04:45:00;;;;;;;4.45;0.60;;;14.00;50.10;;;;;;5155109;27;20045;-66
2022/01/05 04:47:26;;;;;;;2.78;0.60;;;13.90;50.00;;;;;;5155072;27;20035;-66
2022/01/05 04:49:52;;;;;;;5.55;0.82;;;14.00;50.10;;;;;;5136681;27;20534;-66
2022/01/05 04:52:17;;;;;;;2.20;0.47;;;13.90;50.10;;;;;;5155121;27;20079;-66
2022/01/05 04:54:43;;;;;;;2.17;0.30;;;13.90;50.20;;;;;;5155001;27;20042;-66
2022/01/05 04:57:09;;;;;;;2.80;0.40;;;13.90;50.20;;;;;;5136196;27;20043;-67
2022/01/05 04:59:36;;;;;;;3.90;0.57;;;13.90;50.20;;;;;;5136263;27;20035;-66
2022/01/05 05:02:01;;;;;;;3.55;0.47;;;13.90;50.20;;;;;;5136150;27;20064;-66
2022/01/05 05:04:27;;;;;;;4.20;0.50;;;13.90;50.20;;;;;;5136218;27;20038;-66
2022/01/05 05:06:53;;;;;;;4.78;0.90;;;13.90;50.20;;;;;;5136353;27;20114;-67
2022/01/05 05:09:19;;;;;;;2.70;0.30;;;13.90;50.30;;;;;;5136057;27;20525;-66
2022/01/05 05:11:44;;;;;;;3.42;0.55;;;13.90;50.30;;;;;;5136065;27;20039;-66
2022/01/05 05:14:11;;;;;;;3.83;0.55;;;13.90;50.30;;;;;;5135818;27;20039;-66
2022/01/05 05:16:36;;;;;;;2.88;0.55;;;13.90;50.30;;;;;;5135950;27;20050;-66
2022/01/05 05:19:02;;;;;;;4.15;0.60;;;13.90;50.30;;;;;;5135395;27;20039;-66
2022/01/05 05:21:28;;;;;;;3.33;0.50;;;13.90;50.30;;;;;;5135651;27;20442;-66
2022/01/05 05:23:54;;;;;;;5.05;0.60;;;14.00;50.30;;;;;;5136153;27;20155;-66
2022/01/05 05:26:19;;;;;;;2.97;0.40;;;14.20;50.10;;;;;;5135871;27;20118;-66
2022/01/05 05:28:45;;;;;;;2.70;0.73;;;14.40;49.80;;;;;;5154319;27;20099;-66
2022/01/05 05:31:10;;;;;;;2.58;0.60;;;14.80;49.30;;;;;;5135670;27;20042;-66
2022/01/05 05:33:36;;;;;;;4.07;0.40;;;15.10;48.70;;;;;;5135721;27;20046;-66
2022/01/05 05:36:02;;;;;;;2.42;0.28;;;15.50;48.00;;;;;;5135758;27;20039;-66
2022/01/05 05:38:28;;;;;;;1.73;0.30;;;15.90;47.30;;;;;;5154156;27;20043;-67
2022/01/05 05:40:54;;;;;;;2.92;0.68;;;16.40;46.60;;;;;;5135851;27;20073;-66
2022/01/05 05:43:20;;;;;;;3.03;0.63;;;16.70;45.90;;;;;;5153922;27;20439;-66
2022/01/05 05:45:46;;;;;;;3.78;0.57;;;17.10;45.30;;;;;;5135536;27;20065;-66
2022/01/05 05:48:12;;;;;;;3.78;0.50;;;17.40;45.50;;;;;;5135850;27;20030;-66
2022/01/05 05:50:37;;;;;;;3.55;0.40;;;17.70;44.30;;;;;;5153913;27;20397;-66
2022/01/05 05:53:06;;;;;;;3.55;0.68;;;17.90;43.90;;;;;;5153886;27;20034;-67
2022/01/05 05:55:33;;;;;;;4.20;0.38;;;18.00;43.60;;;;;;5135330;27;20477;-69
2022/01/05 05:58:02;;;;;;;1.92;0.30;;;18.20;43.40;;;;;;5154040;27;20031;-66
2022/01/05 06:00:30;;;;;;;1.58;0.73;;;18.20;43.20;;;;;;5153745;27;20473;-66
2022/01/05 06:02:57;;;;;;;1.20;0.32;;;18.20;43.20;;;;;;5135480;27;20053;-66
2022/01/05 06:05:24;;;;;;;1.65;0.30;;;18.20;43.10;;;;;;5153667;27;20047;-66
2022/01/05 06:07:49;;;;;;;3.88;0.40;;;18.30;43.00;;;;;;5153716;27;20039;-66
2022/01/05 06:10:15;;;;;;;4.18;0.50;;;18.20;43.00;;;;;;5135040;27;20122;-66
2022/01/05 06:12:41;;;;;;;0.80;0.30;;;18.20;42.90;;;;;;5135359;27;20038;-66
2022/01/05 06:15:07;;;;;;;1.20;0.40;;;18.20;42.90;;;;;;5134950;27;20502;-66
2022/01/05 06:17:33;;;;;;;4.03;0.57;;;18.20;43.00;;;;;;5153601;27;20042;-66
2022/01/05 06:19:58;;;;;;;2.38;0.38;;;18.00;42.90;;;;;;5134482;27;20406;-66
2022/01/05 06:22:25;;;;;;;3.25;0.70;;;18.00;42.80;;;;;;5134869;27;20054;-66
2022/01/05 06:24:51;;;;;;;4.18;0.93;;;17.90;42.90;;;;;;5134934;27;20038;-66
2022/01/05 06:27:17;;;;;;;1.75;0.40;;;17.90;43.00;;;;;;5153501;27;20049;-66
2022/01/05 06:29:42;;;;;;;2.58;0.70;;;17.80;43.10;;;;;;5134864;27;20125;-66
2022/01/05 06:32:08;;;;;;;2.45;0.57;;;17.70;43.20;;;;;;5153420;27;20178;-66
2022/01/05 06:34:34;;;;;;;3.50;0.57;;;17.60;43.30;;;;;;5135089;27;20099;-66
2022/01/05 06:37:00;;;;;;;1.73;0.38;;;17.50;43.40;;;;;;5134864;27;20043;-66
2022/01/05 06:39:25;;;;;;;2.13;0.30;;;17.40;43.50;;;;;;5134856;27;20042;-66
2022/01/05 06:41:51;;;;;;;2.92;0.60;;;17.30;43.70;;;;;;5153398;27;20052;-66
2022/01/05 06:44:16;;;;;;;2.50;0.30;;;17.30;43.90;;;;;;5153245;27;20039;-66
2022/01/05 06:46:42;;;;;;;2.33;0.50;;;17.20;43.90;;;;;;5134791;27;20042;-66
2022/01/05 06:49:08;;;;;;;4.10;1.10;;;17.10;44.20;;;;;;5134750;27;20046;-66
2022/01/05 06:51:34;;;;;;;2.72;0.40;;;17.00;44.30;;;;;;5134921;27;20121;-66
2022/01/05 06:54:00;;;;;;;3.58;0.50;;;16.90;44.40;;;;;;5134613;27;20047;-66
2022/01/05 06:56:25;;;;;;;3.40;0.40;;;16.80;44.60;;;;;;5153367;27;20045;-66
2022/01/05 06:58:51;;;;;;;2.42;0.50;;;16.70;44.70;;;;;;5134846;27;20122;-67
2022/01/05 07:01:17;;;;;;;4.05;0.63;;;16.60;44.80;;;;;;5134545;27;20450;-66
2022/01/05 07:03:43;;;;;;;2.42;0.40;;;16.50;45.00;;;;;;5134802;27;20039;-66
2022/01/05 07:06:08;;;;;;;3.45;0.30;;;16.40;45.20;;;;;;5136276;27;20389;-66
2022/01/05 07:08:34;;;;;;;2.67;0.52;;;16.40;45.40;;;;;;5138634;27;20071;-67
2022/01/05 07:11:00;;;;;;;2.17;0.35;;;16.30;45.50;;;;;;5138377;27;20398;-67
2022/01/05 07:13:25;;;;;;;3.08;0.40;;;16.20;45.60;;;;;;5138715;27;20046;-67
2022/01/05 07:15:51;;;;;;;3.05;0.60;;;16.20;45.80;;;;;;5138270;27;20042;-67
2022/01/05 07:18:16;;;;;;;3.03;0.43;;;16.00;45.80;;;;;;5156940;27;20039;-67
2022/01/05 07:20:42;;;;;;;4.22;0.40;;;16.00;46.00;;;;;;5156437;27;20046;-67
2022/01/05 07:23:10;;;;;;;4.00;0.35;;;15.90;46.10;;;;;;5156665;27;20389;-67
2022/01/05 07:25:35;;;;;;;2.75;0.50;;;15.90;46.30;;;;;;5156859;27;20431;-67
2022/01/05 07:28:01;;;;;;;2.83;0.40;;;15.80;46.40;;;;;;5156891;27;20035;-67
2022/01/05 07:30:27;;;;;;;3.17;0.60;;;15.70;46.50;;;;;;5138341;27;20367;-67
2022/01/05 07:32:53;;;;;;;1.80;0.50;;;15.60;46.70;;;;;;5156620;27;20428;-67
2022/01/05 07:35:18;;;;;;;2.88;0.50;;;15.50;46.90;;;;;;5137900;27;20043;-66
2022/01/05 07:37:44;;;;;;;2.20;0.30;;;15.40;47.00;;;;;;5137819;27;20043;-67
2022/01/05 07:40:10;;;;;;;2.38;0.45;;;15.40;47.30;;;;;;5156572;27;20043;-66
2022/01/05 07:42:36;;;;;;;3.35;0.40;;;15.30;47.40;;;;;;5138088;27;20091;-67
2022/01/05 07:45:04;;;;;;;2.35;0.47;;;15.20;47.50;;;;;;5138067;27;20034;-67
2022/01/05 07:47:30;;;;;;;2.92;0.40;;;15.10;47.80;;;;;;5138197;27;20070;-67
2022/01/05 07:49:56;;;;;;;2.55;0.50;;;15.10;48.00;;;;;;5137729;27;20074;-66
2022/01/05 07:52:22;;;;;;;2.97;0.60;;;15.00;48.10;;;;;;5137477;27;20130;-66
2022/01/05 07:54:47;;;;;;;2.20;0.30;;;14.90;48.30;;;;;;5137861;27;20053;-67
2022/01/05 07:57:13;;;;;;;2.05;0.35;;;14.80;48.50;;;;;;5137717;27;20129;-66
2022/01/05 07:59:39;;;;;;;4.63;0.85;;;14.80;48.70;;;;;;5155997;27;20098;-66
2022/01/05 08:02:05;;;;;;;2.30;0.40;;;14.80;48.80;;;;;;5156045;27;20038;-67
2022/01/05 08:04:30;;;;;;;3.00;0.40;;;14.70;49.00;;;;;;5137425;27;20456;-67
2022/01/05 08:06:56;;;;;;;3.88;0.50;;;14.70;49.10;;;;;;5137401;27;20070;-67
2022/01/05 08:09:21;;;;;;;2.80;0.43;;;14.70;49.20;;;;;;5155830;27;20034;-67
2022/01/05 08:11:47;;;;;;;2.22;0.43;;;14.60;49.30;;;;;;5156076;27;20381;-66
2022/01/05 08:14:13;;;;;;;2.38;0.60;;;14.60;49.50;;;;;;5155850;27;20026;-66
2022/01/05 08:16:39;;;;;;;2.00;0.85;;;14.50;49.60;;;;;;5155603;27;20449;-66
2022/01/05 08:19:05;;;;;;;2.78;0.57;;;14.50;49.70;;;;;;5137277;27;20109;-67
2022/01/05 08:21:30;;;;;;;2.97;0.50;;;14.50;49.80;;;;;;5136849;27;20063;-67
2022/01/05 08:23:56;;;;;;;3.75;0.70;;;14.50;49.90;;;;;;5137113;27;20390;-67
2022/01/05 08:26:22;;;;;;;2.58;0.60;;;14.50;50.00;;;;;;5137005;27;20067;-67
2022/01/05 08:28:48;;;;;;;3.08;0.30;;;14.40;50.10;;;;;;5137170;27;20042;-67
2022/01/05 08:31:17;;;;;;;2.92;0.50;;;14.40;50.20;;;;;;5136864;27;20444;-67
2022/01/05 08:33:42;;;;;;;2.10;0.30;;;14.40;50.30;;;;;;5155303;27;20046;-66
2022/01/05 08:36:08;;;;;;;2.50;0.57;;;14.40;50.30;;;;;;5136818;27;20039;-66
2022/01/05 08:38:37;;;;;;;4.35;0.55;;;14.30;50.30;;;;;;5136548;27;20034;-67
2022/01/05 08:41:03;;;;;;;3.35;0.50;;;14.30;50.50;;;;;;5155481;27;20039;-67
2022/01/05 08:43:28;;;;;;;3.25;0.50;;;14.30;50.50;;;;;;5155477;27;20079;-67
2022/01/05 08:45:54;;;;;;;3.00;0.43;;;14.30;50.60;;;;;;5155557;27;20038;-66
2022/01/05 08:48:20;;;;;;;2.78;0.45;;;14.30;50.70;;;;;;5136596;27;20041;-66
2022/01/05 08:50:46;;;;;;;2.67;0.50;;;14.20;50.70;;;;;;5155088;27;20049;-66
2022/01/05 08:53:15;;;;;;;1.67;0.40;;;14.30;50.80;;;;;;5136183;27;20078;-67
2022/01/05 08:55:44;;;;;;;2.20;0.40;;;14.20;50.80;;;;;;5154847;27;20034;-67
2022/01/05 08:58:10;;;;;;;2.67;0.40;;;14.20;51.00;;;;;;5155087;27;20374;-66
2022/01/05 09:00:37;;;;;;;4.97;0.45;;;14.20;51.10;;;;;;5135359;27;20049;-67
2022/01/05 09:03:04;;;;;;;3.70;0.40;;;14.30;51.50;;;;;;5152469;27;20141;-66
2022/01/05 09:05:30;;;;;;;4.45;0.60;;;14.40;51.70;;;;;;5151720;27;20077;-66
2022/01/05 09:07:56;;;;;;;2.25;0.30;;;14.60;51.50;;;;;;5172363;27;20046;-65
2022/01/05 09:10:22;;;;;;;2.90;0.40;;;14.80;51.30;;;;;;5117292;27;20038;-66
2022/01/05 09:12:48;;;;;;;2.55;0.38;;;15.00;51.00;;;;;;5117410;27;20099;-65
2022/01/05 09:15:14;;;;;;;1.80;0.30;;;15.20;50.60;;;;;;5134050;27;20081;-66
2022/01/05 09:17:39;;;;;;;1.58;0.38;;;15.50;50.20;;;;;;5134722;27;20099;-66
2022/01/05 09:20:06;;;;;;;2.05;0.43;;;15.80;49.70;;;;;;5150187;27;20107;-67
2022/01/05 09:22:37;;;;;;;2.15;0.20;;;16.10;49.10;;;;;;5174874;27;20122;-66
2022/01/05 09:25:04;;;;;;;;;;;16.50;48.40;;;;;;5156705;27;20040;-66
2022/01/05 09:27:29;;;;;;;1.65;0.50;;;16.80;48.50;;;;;;5175229;27;19925;-65
2022/01/05 09:29:55;;;;;;;1.95;0.20;;;17.20;47.40;;;;;;5156188;27;20124;-66
2022/01/05 09:32:21;;;;;;;1.55;0.20;;;17.50;47.00;;;;;;5152716;27;20043;-67
2022/01/05 09:34:46;;;;;;;3.55;0.28;;;17.80;46.50;;;;;;5153722;27;20442;-65
2022/01/05 09:42:45;;;;;;;1.50;0.40;;;19.10;43.90;;;;;;5132175;27;20047;-66
2022/01/05 09:45:19;;;;;;;1.92;0.20;;;19.50;43.00;;;;;;5131742;27;20034;-65
2022/01/05 09:50:26;;;;;;;3.17;0.50;;;19.70;43.00;;;;;;5129527;27;20422;-65
2022/01/05 09:52:54;;;;;;;1.77;0.30;;;19.90;42.70;;;;;;5128090;28;20382;-66
2022/01/05 09:55:20;;;;;;;1.45;0.30;;;20.00;42.50;;;;;;5123167;28;20035;-66
2022/01/05 09:57:46;;;;;;;0.98;0.20;;;20.20;42.40;;;;;;5128649;28;20051;-65
2022/01/05 10:00:14;;;;;;;1.80;0.30;;;20.30;42.30;;;;;;5128911;28;20639;-66
2022/01/05 10:02:42;;;;;;;2.35;0.38;;;20.40;42.10;;;;;;5128601;28;20047;-66
2022/01/05 10:05:10;;;;;;;1.50;0.25;;;20.50;41.90;;;;;;5129929;27;20061;-66
2022/01/05 10:07:37;;;;;;;1.95;0.43;;;20.60;41.90;;;;;;5130403;27;20035;-65
2022/01/05 10:10:03;;;;;;;1.80;0.30;;;20.70;41.80;;;;;;5128048;28;20039;-65
2022/01/05 10:12:29;;;;;;;1.25;0.25;;;20.70;41.70;;;;;;5128072;28;20168;-64
2022/01/05 10:14:55;;;;;;;1.25;0.20;;;20.80;41.60;;;;;;5128031;28;20114;-65
2022/01/05 10:17:26;;;;;;;3.00;0.30;;;20.90;41.50;;;;;;5129385;28;20093;-65
2022/01/05 10:19:57;;;;;;;1.20;0.17;;;21.10;41.10;;;;;;5128117;28;20046;-67
2022/01/05 10:25:17;;;;;;;3.67;0.20;;;21.40;40.60;;;;;;5129620;27;20406;-65
2022/01/05 10:28:02;;;;;;;1.67;0.30;;;22.00;39.60;;;;;;5128679;28;20105;-68
2022/01/05 10:30:46;;;;;;;1.75;0.20;;;21.90;39.70;;;;;;5130222;27;20127;-67
2022/01/05 10:33:12;;;;;;;2.15;0.25;;;21.80;40.00;;;;;;5129042;28;20376;-66
2022/01/05 10:35:38;;;;;;;2.28;0.30;;;21.70;40.10;;;;;;5128301;28;20068;-68
2022/01/05 10:38:08;;;;;;;3.47;0.57;;;21.60;40.20;;;;;;5127691;27;20053;-68
2022/01/05 10:40:37;;;;;;;1.60;0.40;;;21.80;39.90;;;;;;5129715;27;20387;-69
2022/01/05 10:43:09;;;;;;;1.48;0.20;;;21.90;39.70;;;;;;5127930;28;20064;-67
2022/01/05 10:48:24;;;;;;;2.73;0.30;;;22.20;39.30;;;;;;5155916;27;1171338;-65
2022/01/05 10:51:05;;;;;;;1.50;0.20;;;22.40;38.70;;;;;;5153329;27;20270;-67
2022/01/05 10:53:33;;;;;;;2.42;0.40;;;22.40;38.80;;;;;;5153034;27;20038;-67
2022/01/05 10:55:59;;;;;;;1.42;0.40;;;22.30;38.90;;;;;;5153362;27;20083;-66
2022/01/05 10:58:24;;;;;;;3.78;0.73;;;22.30;39.20;;;;;;5151294;27;20042;-66
2022/01/05 11:00:54;;;;;;;2.58;0.35;;;22.30;39.10;;;;;;5152219;27;20488;-68
2022/01/05 11:03:39;;;;;;;2.57;0.40;;;22.40;38.90;;;;;;5171398;27;20095;-66
2022/01/05 11:11:41;;;;;;;2.03;0.30;;;22.50;38.80;;;;;;5129099;27;20406;-67
2022/01/05 11:14:15;;;;;;;2.88;0.25;;;23.40;37.20;;;;;;5117149;28;20487;-66
2022/01/05 11:16:43;;;;;;;1.15;0.30;;;23.60;36.60;;;;;;5119308;28;20039;-66
2022/01/05 11:19:31;;;;;;;2.38;0.30;;;23.50;36.80;;;;;;5130040;27;20395;-66
2022/01/05 11:27:27;;;;;;;1.63;0.20;;;23.40;37.10;;;;;;5098125;27;1158159;-68
2022/01/05 11:29:54;;;;;;;1.30;0.43;;;23.30;37.20;;;;;;5111082;28;20047;-68
2022/01/05 11:32:25;;;;;;;2.22;0.30;;;23.40;36.90;;;;;;5129637;28;20039;-66
2022/01/05 11:34:51;;;;;;;;;;;23.50;36.90;;;;;;5111931;28;20039;-67
2022/01/05 11:37:17;;;;;;;3.58;0.30;;;23.90;36.40;;;;;;5109469;28;20260;-65
2022/01/05 11:39:46;;;;;;;4.72;0.77;;;24.20;36.00;;;;;;5110978;28;20039;-70
2022/01/05 11:42:14;;;;;;;1.92;0.50;;;24.20;35.90;;;;;;5110987;28;20043;-66
2022/01/05 11:44:48;;;;;;;3.60;0.30;;;24.10;36.10;;;;;;5128899;28;20035;-66
2022/01/05 11:47:24;;;;;;;3.95;0.30;;;24.10;36.10;;;;;;5109687;28;20051;-66
2022/01/05 11:49:52;;;;;;;3.92;0.55;;;24.00;36.40;;;;;;5125393;28;20143;-66
2022/01/05 11:52:18;;;;;;;3.45;0.30;;;23.90;36.60;;;;;;5129201;28;20027;-67
2022/01/05 11:55:05;;;;;;;7.57;0.60;;;23.70;37.00;;;;;;5109641;28;20134;-66
2022/01/05 11:57:30;;;;;;;11.23;0.65;;;23.40;37.10;;;;;;5109602;28;20035;-68
2022/01/05 12:00:17;;;;;;;3.10;0.40;;;23.10;37.40;;;;;;5105427;28;20356;-67
2022/01/05 12:02:43;;;;;;;2.30;0.20;;;22.80;37.80;;;;;;5078340;28;20089;-67
2022/01/05 12:05:12;;;;;;;6.10;0.68;;;22.50;38.30;;;;;;5125122;28;20118;-70
2022/01/05 12:07:45;;;;;;;3.95;0.57;;;22.20;38.90;;;;;;5128935;28;20035;-72
2022/01/05 12:10:16;;;;;;;4.15;0.50;;;21.90;39.20;;;;;;5103956;28;20035;-66
2022/01/05 12:15:51;;;;;;;2.67;0.40;;;21.70;39.60;;;;;;5109272;27;20408;-69
2022/01/05 12:18:21;;;;;;;;;;;21.30;40.60;;;;;;5102890;28;20051;-68
2022/01/05 12:20:46;;;;;;;1.70;0.30;;;21.10;40.80;;;;;;5099438;28;20261;-69
2022/01/05 12:23:24;;;;;;;2.78;0.22;;;20.90;41.30;;;;;;5092159;28;20044;-64
2022/01/05 12:26:13;;;;;;;1.58;0.30;;;20.80;41.60;;;;;;5108370;28;20040;-67
2022/01/05 12:28:50;;;;;;;2.45;0.38;;;20.70;41.90;;;;;;5108100;28;20039;-64
2022/01/05 12:31:16;;;;;;;2.25;0.30;;;20.60;42.90;;;;;;5109227;28;20036;-66
2022/01/05 12:33:46;;;;;;;5.13;0.50;;;20.50;42.40;;;;;;5109261;28;20097;-64
2022/01/05 12:36:15;;;;;;;1.30;0.30;;;20.40;42.80;;;;;;5109366;28;20035;-65
2022/01/05 12:41:40;;;;;;;3.88;0.30;;;20.30;43.20;;;;;;5152565;27;1171281;-67
2022/01/05 12:47:16;;;;;;;2.90;0.30;;;20.00;44.60;;;;;;5130226;27;20379;-66
2022/01/05 12:49:42;;;;;;;3.08;0.40;;;19.80;44.60;;;;;;5130344;27;20045;-65
2022/01/05 12:54:53;;;;;;;3.42;0.57;;;19.80;45.10;;;;;;5130241;27;20346;-67
2022/01/05 12:57:23;;;;;;;2.75;0.50;;;19.60;44.70;;;;;;5128830;28;20498;-68
2022/01/05 12:59:54;;;;;;;2.23;0.43;;;19.50;44.60;;;;;;5128851;28;20062;-67
2022/01/05 13:02:27;;;;;;;4.95;0.65;;;19.40;44.70;;;;;;5126118;28;20031;-68
2022/01/05 13:04:54;;;;;;;2.30;0.35;;;19.30;44.80;;;;;;5128461;27;20040;-70
2022/01/05 13:07:23;;;;;;;2.55;0.43;;;19.30;45.10;;;;;;5127007;28;20035;-68
2022/01/05 13:09:54;;;;;;;3.25;0.38;;;19.10;45.20;;;;;;5128156;27;20145;-67
2022/01/05 13:12:23;;;;;;;3.53;0.35;;;19.00;45.20;;;;;;5128544;27;20130;-70
2022/01/05 13:14:52;;;;;;;2.08;0.30;;;18.80;45.30;;;;;;5128480;28;20035;-67
2022/01/05 13:17:22;;;;;;;3.03;0.30;;;18.70;45.40;;;;;;5129835;27;20039;-67
2022/01/05 13:19:55;;;;;;;5.78;0.40;;;18.60;45.40;;;;;;5129488;27;20104;-67
2022/01/05 13:27:47;;;;;;;2.47;0.40;;;18.50;45.50;;;;;;5142778;27;1176465;-67
2022/01/05 13:30:18;;;;;;;2.38;0.30;;;18.20;45.90;;;;;;5152653;27;20287;-66
2022/01/05 13:32:47;;;;;;;3.80;0.43;;;18.20;46.10;;;;;;5153050;27;20035;-66